createdAt,value
2019-05-13T00:03:14.051Z,5.78
2019-05-13T00:08:13.947Z,5.72
2019-05-13T00:13:14.805Z,5.54
2019-05-13T00:18:14.342Z,5.37
2019-05-13T00:23:14.485Z,5.35
2019-05-13T00:28:14.481Z,5.24
2019-05-13T00:33:13.931Z,5.04
2019-05-13T00:38:14.384Z,4.85
2019-05-13T00:43:14.343Z,4.75
2019-05-13T00:48:14.083Z,4.65
2019-05-13T00:53:13.340Z,4.56
2019-05-13T00:58:13.284Z,4.51
2019-05-13T01:03:11.049Z,4.46
2019-05-13T01:08:10.239Z,4.40
2019-05-13T01:13:09.097Z,4.35
2019-05-13T01:18:09.058Z,4.17
2019-05-13T01:23:09.093Z,4.05
2019-05-13T01:28:08.094Z,3.96
2019-05-13T01:33:07.135Z,3.85
2019-05-13T01:38:08.266Z,3.80
2019-05-13T01:43:09.107Z,3.82
2019-05-13T01:48:08.248Z,3.79
2019-05-13T01:53:08.312Z,3.70
2019-05-13T01:58:08.096Z,3.58
2019-05-13T02:03:08.109Z,3.62
2019-05-13T02:08:08.056Z,3.64
2019-05-13T02:13:07.213Z,3.55
2019-05-13T02:18:07.064Z,3.46
2019-05-13T02:23:06.096Z,3.30
2019-05-13T02:28:09.308Z,3.17
2019-05-13T02:33:06.051Z,3.10
2019-05-13T02:38:19.807Z,2.98
2019-05-13T02:43:05.077Z,2.89
2019-05-13T02:48:04.093Z,2.75
2019-05-13T02:53:03.096Z,2.73
2019-05-13T02:58:03.514Z,2.81
2019-05-13T03:03:03.251Z,2.88
2019-05-13T03:08:03.556Z,2.92
2019-05-13T03:13:03.580Z,3.04
2019-05-13T03:18:03.526Z,3.06
2019-05-13T03:23:03.195Z,2.92
2019-05-13T03:28:03.175Z,2.74
2019-05-13T03:33:10.325Z,2.51
2019-05-13T03:38:03.285Z,2.41
2019-05-13T03:43:02.693Z,2.38
2019-05-13T03:48:03.667Z,2.38
2019-05-13T03:53:02.937Z,2.32
2019-05-13T03:58:02.912Z,2.31
2019-05-13T04:03:02.920Z,2.36
2019-05-13T04:08:03.173Z,2.47
2019-05-13T04:13:03.839Z,2.55
2019-05-13T04:18:02.821Z,2.51
2019-05-13T04:23:02.970Z,2.50
2019-05-13T04:28:03.170Z,2.51
2019-05-13T04:33:02.393Z,2.61
2019-05-13T04:38:03.383Z,2.70
2019-05-13T04:43:02.912Z,2.88
2019-05-13T04:48:03.232Z,3.10
2019-05-13T04:53:03.219Z,3.32
2019-05-13T04:58:03.417Z,3.44
2019-05-13T05:03:03.257Z,3.66
2019-05-13T05:08:03.150Z,3.92
2019-05-13T05:12:59.150Z,4.18
2019-05-13T05:17:58.222Z,4.41
2019-05-13T05:22:58.177Z,4.57
2019-05-13T05:27:58.509Z,4.78
2019-05-13T05:32:58.168Z,5.02
2019-05-13T05:38:01.441Z,5.28
2019-05-13T05:42:58.651Z,5.50
2019-05-13T05:48:01.463Z,5.76
2019-05-13T05:53:01.720Z,6.08
2019-05-13T05:57:58.184Z,6.36
2019-05-13T06:02:58.182Z,6.67
2019-05-13T06:07:58.396Z,6.92
2019-05-13T06:12:57.203Z,7.08
2019-05-13T06:17:56.253Z,7.33
2019-05-13T06:22:56.157Z,7.56
2019-05-13T06:27:56.283Z,7.72
2019-05-13T06:32:56.180Z,7.82
2019-05-13T06:37:56.661Z,7.97
2019-05-13T06:42:55.210Z,8.12
2019-05-13T06:47:56.185Z,8.22
2019-05-13T06:52:55.231Z,8.30
2019-05-13T06:57:54.625Z,8.42
2019-05-13T07:02:54.384Z,8.48
2019-05-13T07:07:53.226Z,8.60
2019-05-13T07:12:52.305Z,8.77
2019-05-13T07:17:52.030Z,8.93
2019-05-13T07:22:53.197Z,9.08
2019-05-13T07:27:51.606Z,9.20
2019-05-13T07:32:52.388Z,9.38
2019-05-13T07:37:51.738Z,9.48
2019-05-13T07:42:49.645Z,9.62
2019-05-13T07:47:48.621Z,9.78
2019-05-13T07:52:51.527Z,9.99
2019-05-13T07:57:48.190Z,10.10
2019-05-13T08:02:49.238Z,10.09
2019-05-13T08:07:51.374Z,10.25
2019-05-13T08:12:48.043Z,10.29
2019-05-13T08:17:48.926Z,10.36
2019-05-13T08:22:47.918Z,10.38
2019-05-13T08:27:47.946Z,10.52
2019-05-13T08:32:48.107Z,10.65
2019-05-13T08:37:46.945Z,10.81
2019-05-13T08:42:48.067Z,10.97
2019-05-13T08:47:51.126Z,10.93
2019-05-13T08:52:51.112Z,11.13
2019-05-13T08:57:47.928Z,11.33
2019-05-13T09:02:47.945Z,11.46
2019-05-13T09:07:47.946Z,11.64
2019-05-13T09:12:46.984Z,11.79
2019-05-13T09:17:46.243Z,11.73
2019-05-13T09:22:44.933Z,11.99
2019-05-13T09:27:44.130Z,12.00
2019-05-13T09:32:43.945Z,12.12
2019-05-13T09:37:43.060Z,12.23
2019-05-13T09:42:50.947Z,12.23
2019-05-13T09:47:42.414Z,12.45
2019-05-13T09:52:42.907Z,12.50
2019-05-13T09:57:41.628Z,12.61
2019-05-13T10:02:42.601Z,12.61
2019-05-13T10:07:42.480Z,12.73
2019-05-13T10:12:42.527Z,12.71
2019-05-13T10:17:42.808Z,12.94
2019-05-13T10:22:41.718Z,13.08
2019-05-13T10:27:41.889Z,13.16
2019-05-13T10:32:42.505Z,13.12
2019-05-13T10:37:41.745Z,13.37
2019-05-13T10:42:43.311Z,13.56
2019-05-13T10:47:42.312Z,13.49
2019-05-13T10:52:42.542Z,13.53
2019-05-13T10:57:42.341Z,13.57
2019-05-13T11:02:39.437Z,13.55
2019-05-13T11:07:39.002Z,13.64
2019-05-13T11:12:41.723Z,13.73
2019-05-13T11:17:37.949Z,13.66
2019-05-13T11:22:37.965Z,13.76
2019-05-13T11:27:37.997Z,13.90
2019-05-13T11:32:38.118Z,14.09
2019-05-13T11:37:37.996Z,14.05
2019-05-13T11:42:38.141Z,14.18
2019-05-13T11:47:38.036Z,14.33
2019-05-13T11:52:37.950Z,14.43
2019-05-13T11:57:38.141Z,14.45
2019-05-13T12:02:36.933Z,14.50
2019-05-13T12:07:36.345Z,14.54
2019-05-13T12:12:36.017Z,14.71
2019-05-13T12:17:35.398Z,14.74
2019-05-13T12:22:34.976Z,14.76
2019-05-13T12:27:34.918Z,14.60
2019-05-13T12:32:36.159Z,14.78
2019-05-13T12:37:35.555Z,14.90
2019-05-13T12:42:34.014Z,14.89
2019-05-13T12:47:32.981Z,14.90
2019-05-13T12:52:33.009Z,15.03
2019-05-13T12:57:32.593Z,14.91
2019-05-13T13:02:32.568Z,15.10
2019-05-13T13:07:37.099Z,15.15
2019-05-13T13:12:36.879Z,15.17
2019-05-13T13:17:31.208Z,15.15
2019-05-13T13:22:32.137Z,15.35
2019-05-13T13:28:02.140Z,15.25
2019-05-13T13:32:33.092Z,15.33
2019-05-13T13:37:28.940Z,15.34
2019-05-13T13:42:32.166Z,15.28
2019-05-13T13:47:28.313Z,15.42
2019-05-13T13:52:27.210Z,15.49
2019-05-13T13:57:27.958Z,15.64
2019-05-13T14:02:26.930Z,15.71
2019-05-13T14:07:34.822Z,15.52
2019-05-13T14:12:25.911Z,15.44
2019-05-13T14:17:25.922Z,15.47
2019-05-13T14:22:25.065Z,15.42
2019-05-13T14:27:24.923Z,15.42
2019-05-13T14:32:24.044Z,15.59
2019-05-13T14:37:25.207Z,15.71
2019-05-13T14:42:24.988Z,15.83
2019-05-13T14:47:24.939Z,15.73
2019-05-13T14:52:24.140Z,15.60
2019-05-13T14:57:24.350Z,15.71
2019-05-13T15:02:25.116Z,15.82
2019-05-13T15:07:25.106Z,15.80
2019-05-13T15:12:24.056Z,15.77
2019-05-13T15:17:23.960Z,15.89
2019-05-13T15:22:22.962Z,15.96
2019-05-13T15:27:23.015Z,15.92
2019-05-13T15:37:22.037Z,15.95
2019-05-13T15:42:21.986Z,15.99
2019-05-13T15:47:24.032Z,15.94
2019-05-13T15:52:22.580Z,16.00
2019-05-13T15:57:21.415Z,16.09
2019-05-13T16:02:22.639Z,16.12
2019-05-13T16:07:20.950Z,16.20
2019-05-13T16:12:21.399Z,16.30
2019-05-13T16:17:30.649Z,16.67
2019-05-13T16:22:22.882Z,17.50
2019-05-13T16:27:18.940Z,18.04
2019-05-13T16:32:18.877Z,18.62
2019-05-13T16:42:17.975Z,19.37
2019-05-13T16:47:17.919Z,19.28
2019-05-13T16:52:16.877Z,18.82
2019-05-13T16:57:15.913Z,18.38
2019-05-13T17:02:16.873Z,17.54
2019-05-13T17:07:16.855Z,16.86
2019-05-13T17:12:16.937Z,16.39
2019-05-13T17:17:16.893Z,16.02
2019-05-13T17:22:16.008Z,15.74
2019-05-13T17:27:14.880Z,15.52
2019-05-13T17:32:15.106Z,15.33
2019-05-13T17:37:14.875Z,15.19
2019-05-13T17:42:14.015Z,15.05
2019-05-13T17:47:12.863Z,14.89
2019-05-13T17:52:13.846Z,14.82
2019-05-13T17:57:13.892Z,14.72
2019-05-13T18:02:12.870Z,14.68
2019-05-13T18:07:12.282Z,14.50
2019-05-13T18:12:11.537Z,14.32
2019-05-13T18:22:11.482Z,14.15
2019-05-13T18:27:12.240Z,14.01
2019-05-13T18:32:12.429Z,13.88
2019-05-13T18:37:11.831Z,13.68
2019-05-13T18:42:11.479Z,13.53
2019-05-13T18:47:11.988Z,13.49
2019-05-13T18:52:11.615Z,13.46
2019-05-13T18:57:12.199Z,13.32
2019-05-13T19:02:12.283Z,13.18
2019-05-13T19:07:09.903Z,13.12
2019-05-13T19:12:11.439Z,12.99
2019-05-13T19:17:08.928Z,12.95
2019-05-13T19:22:07.915Z,12.83
2019-05-13T19:27:07.886Z,12.65
2019-05-13T19:32:09.022Z,12.59
2019-05-13T19:37:08.860Z,12.44
2019-05-13T19:42:08.324Z,12.35
2019-05-13T19:47:07.010Z,12.31
2019-05-13T19:52:06.600Z,12.22
2019-05-13T19:57:05.802Z,12.04
2019-05-13T20:02:04.855Z,11.95
2019-05-13T20:07:04.876Z,11.90
2019-05-13T20:12:05.090Z,11.79
2019-05-13T20:17:04.845Z,11.67
2019-05-13T20:22:04.947Z,11.57
2019-05-13T20:27:04.006Z,11.52
2019-05-13T20:32:03.183Z,11.43
2019-05-13T20:37:02.865Z,11.35
2019-05-13T20:42:02.847Z,11.30
2019-05-13T20:47:01.935Z,11.23
2019-05-13T20:52:01.950Z,11.25
2019-05-13T20:57:01.984Z,11.11
2019-05-13T21:02:02.517Z,11.09
2019-05-13T21:07:02.294Z,11.04
2019-05-13T21:12:02.161Z,11.00
2019-05-13T21:17:01.584Z,10.96
2019-05-13T21:22:00.150Z,10.84
2019-05-13T21:27:01.789Z,10.78
2019-05-13T21:32:01.150Z,10.72
2019-05-13T21:37:02.079Z,10.57
2019-05-13T21:42:02.137Z,10.44
2019-05-13T21:47:01.991Z,10.37
2019-05-13T21:51:58.963Z,10.33
2019-05-13T21:56:58.848Z,10.28
2019-05-13T22:01:58.894Z,10.18
2019-05-13T22:07:01.477Z,10.06
2019-05-13T22:12:01.829Z,9.99
2019-05-13T22:17:01.345Z,9.91
2019-05-13T22:22:01.813Z,9.86
2019-05-13T22:27:01.999Z,9.81
2019-05-13T22:31:58.852Z,9.74
2019-05-13T22:36:58.931Z,9.76
2019-05-13T22:41:58.816Z,9.75
2019-05-13T22:46:58.865Z,9.68
2019-05-13T22:51:58.868Z,9.63
2019-05-13T22:56:58.879Z,9.58
2019-05-13T23:01:58.897Z,9.58
2019-05-13T23:06:58.071Z,9.49
2019-05-13T23:11:58.868Z,9.37
2019-05-13T23:16:58.914Z,9.28
2019-05-13T23:21:58.869Z,9.17
2019-05-13T23:26:58.163Z,8.94
2019-05-13T23:31:57.174Z,8.98
2019-05-13T23:36:56.248Z,8.99
2019-05-13T23:41:56.885Z,8.96
2019-05-13T23:46:56.026Z,8.88
2019-05-13T23:51:55.882Z,8.74
2019-05-13T23:56:55.851Z,8.66
